sensor_id;sensor_type;location;lat;lon;timestamp;pressure;altitude;pressure_sealevel;temperature;humidity
74621;BME280;64861;47.546;19.254;2023-03-05T00:02:22;98877.09;;;22.49;37.14
74621;BME280;64861;47.546;19.254;2023-03-05T00:04:47;98888.13;;;22.46;37.03
74621;BME280;64861;47.546;19.254;2023-03-05T00:07:13;98885.47;;;22.46;36.96
74621;BME280;64861;47.546;19.254;2023-03-05T00:09:39;98887.09;;;22.47;36.82
74621;BME280;64861;47.546;19.254;2023-03-05T00:12:04;98893.06;;;22.49;36.74
74621;BME280;64861;47.546;19.254;2023-03-05T00:14:30;98887.09;;;22.47;37.15
74621;BME280;64861;47.546;19.254;2023-03-05T00:16:56;98886.63;;;22.44;36.83
74621;BME280;64861;47.546;19.254;2023-03-05T00:19:21;98887.28;;;22.46;36.76
74621;BME280;64861;47.546;19.254;2023-03-05T00:21:47;98880.50;;;22.43;37.05
74621;BME280;64861;47.546;19.254;2023-03-05T00:24:15;98884.44;;;22.47;36.85
74621;BME280;64861;47.546;19.254;2023-03-05T00:26:42;98873.53;;;22.42;37.05
74621;BME280;64861;47.546;19.254;2023-03-05T00:29:08;98880.69;;;22.42;36.74
74621;BME280;64861;47.546;19.254;2023-03-05T00:31:36;98876.44;;;22.47;36.80
74621;BME280;64861;47.546;19.254;2023-03-05T00:34:05;98865.91;;;22.39;36.94
74621;BME280;64861;47.546;19.254;2023-03-05T00:36:31;98875.16;;;22.43;36.39
74621;BME280;64861;47.546;19.254;2023-03-05T00:38:57;98879.84;;;22.41;37.03
74621;BME280;64861;47.546;19.254;2023-03-05T00:41:23;98871.13;;;22.47;36.93
74621;BME280;64861;47.546;19.254;2023-03-05T00:43:49;98874.16;;;22.44;36.94
74621;BME280;64861;47.546;19.254;2023-03-05T00:46:15;98876.66;;;22.46;36.88
74621;BME280;64861;47.546;19.254;2023-03-05T00:48:40;98875.81;;;22.45;36.97
74621;BME280;64861;47.546;19.254;2023-03-05T00:51:07;98881.16;;;22.45;37.04
74621;BME280;64861;47.546;19.254;2023-03-05T00:53:33;98869.66;;;22.45;37.09
74621;BME280;64861;47.546;19.254;2023-03-05T00:55:59;98864.16;;;22.46;36.73
74621;BME280;64861;47.546;19.254;2023-03-05T00:58:24;98862.50;;;22.45;36.91
74621;BME280;64861;47.546;19.254;2023-03-05T01:00:50;98859.41;;;22.42;37.17
74621;BME280;64861;47.546;19.254;2023-03-05T01:03:19;98863.50;;;22.44;36.84
74621;BME280;64861;47.546;19.254;2023-03-05T01:05:44;98864.97;;;22.47;36.89
74621;BME280;64861;47.546;19.254;2023-03-05T01:08:10;98869.47;;;22.46;36.58
74621;BME280;64861;47.546;19.254;2023-03-05T01:10:35;98866.53;;;22.41;36.85
74621;BME280;64861;47.546;19.254;2023-03-05T01:13:01;98863.34;;;22.46;37.03
74621;BME280;64861;47.546;19.254;2023-03-05T01:15:26;98868.81;;;22.44;36.80
74621;BME280;64861;47.546;19.254;2023-03-05T01:17:52;98865.53;;;22.42;36.97
74621;BME280;64861;47.546;19.254;2023-03-05T01:20:19;98868.00;;;22.44;36.87
74621;BME280;64861;47.546;19.254;2023-03-05T01:22:45;98865.91;;;22.39;36.65
74621;BME280;64861;47.546;19.254;2023-03-05T01:25:12;98857.81;;;22.47;36.60
74621;BME280;64861;47.546;19.254;2023-03-05T01:27:38;98857.56;;;22.42;36.80
74621;BME280;64861;47.546;19.254;2023-03-05T01:30:05;98859.84;;;22.45;36.60
74621;BME280;64861;47.546;19.254;2023-03-05T01:32:33;98866.53;;;22.41;36.67
74621;BME280;64861;47.546;19.254;2023-03-05T01:35:00;98867.38;;;22.42;36.93
74621;BME280;64861;47.546;19.254;2023-03-05T01:37:25;98872.50;;;22.43;36.77
74621;BME280;64861;47.546;19.254;2023-03-05T01:39:51;98878.28;;;22.47;36.60
74621;BME280;64861;47.546;19.254;2023-03-05T01:42:16;98865.19;;;22.45;36.68
74621;BME280;64861;47.546;19.254;2023-03-05T01:47:34;98863.25;;;22.39;36.49
74621;BME280;64861;47.546;19.254;2023-03-05T01:50:00;98865.44;;;22.36;36.75
74621;BME280;64861;47.546;19.254;2023-03-05T01:52:27;98868.75;;;22.38;36.75
74621;BME280;64861;47.546;19.254;2023-03-05T01:55:00;98855.44;;;22.38;36.79
74621;BME280;64861;47.546;19.254;2023-03-05T01:57:34;98855.88;;;22.41;36.55
74621;BME280;64861;47.546;19.254;2023-03-05T02:00:06;98857.72;;;22.41;36.37
74621;BME280;64861;47.546;19.254;2023-03-05T02:02:32;98857.91;;;22.39;36.61
74621;BME280;64861;47.546;19.254;2023-03-05T02:05:10;98856.44;;;22.37;36.32
74621;BME280;64861;47.546;19.254;2023-03-05T02:07:35;98852.75;;;22.38;36.60
74621;BME280;64861;47.546;19.254;2023-03-05T02:10:18;98866.97;;;22.45;36.47
74621;BME280;64861;47.546;19.254;2023-03-05T02:12:45;98859.56;;;22.40;36.47
74621;BME280;64861;47.546;19.254;2023-03-05T02:15:12;98858.91;;;22.38;36.66
74621;BME280;64861;47.546;19.254;2023-03-05T02:17:37;98858.91;;;22.38;36.63
74621;BME280;64861;47.546;19.254;2023-03-05T02:20:07;98864.22;;;22.38;36.87
74621;BME280;64861;47.546;19.254;2023-03-05T02:22:34;98869.38;;;22.40;36.59
74621;BME280;64861;47.546;19.254;2023-03-05T02:24:59;98867.91;;;22.37;36.71
74621;BME280;64861;47.546;19.254;2023-03-05T02:27:29;98875.16;;;22.43;36.70
74621;BME280;64861;47.546;19.254;2023-03-05T02:30:00;98878.47;;;22.45;36.83
74621;BME280;64861;47.546;19.254;2023-03-05T02:32:26;98868.56;;;22.39;36.87
74621;BME280;64861;47.546;19.254;2023-03-05T02:34:52;98863.88;;;22.41;37.16
74621;BME280;64861;47.546;19.254;2023-03-05T02:37:17;98868.81;;;22.44;37.17
74621;BME280;64861;47.546;19.254;2023-03-05T02:39:43;98873.16;;;22.45;37.26
74621;BME280;64861;47.546;19.254;2023-03-05T02:42:08;98872.50;;;22.43;37.29
74621;BME280;64861;47.546;19.254;2023-03-05T02:44:34;98869.19;;;22.41;37.07
74621;BME280;64861;47.546;19.254;2023-03-05T02:46:59;98861.84;;;22.43;36.85
74621;BME280;64861;47.546;19.254;2023-03-05T02:49:25;98865.34;;;22.44;36.89
74621;BME280;64861;47.546;19.254;2023-03-05T02:51:50;98861.56;;;22.38;37.13
74621;BME280;64861;47.546;19.254;2023-03-05T02:54:16;98870.22;;;22.40;37.38
74621;BME280;64861;47.546;19.254;2023-03-05T02:56:42;98864.88;;;22.40;37.62
74621;BME280;64861;47.546;19.254;2023-03-05T02:59:08;98865.19;;;22.45;37.48
74621;BME280;64861;47.546;19.254;2023-03-05T03:01:33;98865.53;;;22.42;37.51
74621;BME280;64861;47.546;19.254;2023-03-05T03:03:59;98866.53;;;22.41;37.81
74621;BME280;64861;47.546;19.254;2023-03-05T03:06:24;98867.19;;;22.43;37.66
74621;BME280;64861;47.546;19.254;2023-03-05T03:08:50;98866.97;;;22.45;37.63
74621;BME280;64861;47.546;19.254;2023-03-05T03:11:15;98867.84;;;22.45;37.70
74621;BME280;64861;47.546;19.254;2023-03-05T03:13:41;98863.88;;;22.41;38.03
74621;BME280;64861;47.546;19.254;2023-03-05T03:16:12;98872.31;;;22.45;37.97
74621;BME280;64861;47.546;19.254;2023-03-05T03:18:38;98868.00;;;22.44;37.80
74621;BME280;64861;47.546;19.254;2023-03-05T03:21:05;98866.81;;;22.46;37.71
74621;BME280;64861;47.546;19.254;2023-03-05T03:23:31;98863.88;;;22.41;37.69
74621;BME280;64861;47.546;19.254;2023-03-05T03:25:57;98855.50;;;22.44;37.71
74621;BME280;64861;47.546;19.254;2023-03-05T03:28:23;98852.84;;;22.44;37.79
74621;BME280;64861;47.546;19.254;2023-03-05T03:30:49;98852.84;;;22.44;37.72
74621;BME280;64861;47.546;19.254;2023-03-05T03:33:16;98849.72;;;22.41;37.64
74621;BME280;64861;47.546;19.254;2023-03-05T03:35:45;98834.41;;;22.43;37.68
74621;BME280;64861;47.546;19.254;2023-03-05T03:38:11;98838.25;;;22.40;37.62
74621;BME280;64861;47.546;19.254;2023-03-05T03:40:39;98848.09;;;22.40;37.70
74621;BME280;64861;47.546;19.254;2023-03-05T03:43:06;98854.06;;;22.42;37.64
74621;BME280;64861;47.546;19.254;2023-03-05T03:45:31;98846.91;;;22.42;37.91
74621;BME280;64861;47.546;19.254;2023-03-05T03:47:57;98850.38;;;22.43;37.72
74621;BME280;64861;47.546;19.254;2023-03-05T03:50:22;98851.41;;;22.42;37.84
74621;BME280;64861;47.546;19.254;2023-03-05T03:52:49;98850.91;;;22.38;38.08
74621;BME280;64861;47.546;19.254;2023-03-05T03:55:15;98852.97;;;22.36;37.94
74621;BME280;64861;47.546;19.254;2023-03-05T03:57:40;98853.59;;;22.38;38.02
74621;BME280;64861;47.546;19.254;2023-03-05T04:00:08;98857.91;;;22.39;37.69
74621;BME280;64861;47.546;19.254;2023-03-05T04:02:35;98845.22;;;22.41;37.76
74621;BME280;64861;47.546;19.254;2023-03-05T04:05:01;98848.53;;;22.43;37.98
74621;BME280;64861;47.546;19.254;2023-03-05T04:07:27;98844.69;;;22.46;37.81
74621;BME280;64861;47.546;19.254;2023-03-05T04:09:52;98846.09;;;22.42;37.81
74621;BME280;64861;47.546;19.254;2023-03-05T04:12:18;98844.25;;;22.42;37.79
74621;BME280;64861;47.546;19.254;2023-03-05T04:14:45;98840.19;;;22.46;37.78
74621;BME280;64861;47.546;19.254;2023-03-05T04:17:11;98846.91;;;22.42;37.84
74621;BME280;64861;47.546;19.254;2023-03-05T04:19:37;98839.91;;;22.41;37.80
74621;BME280;64861;47.546;19.254;2023-03-05T04:22:03;98829.72;;;22.45;37.66
74621;BME280;64861;47.546;19.254;2023-03-05T04:24:28;98837.53;;;22.46;37.58
74621;BME280;64861;47.546;19.254;2023-03-05T04:26:54;98831.53;;;22.44;37.67
74621;BME280;64861;47.546;19.254;2023-03-05T04:29:19;98833.31;;;22.37;37.60
74621;BME280;64861;47.546;19.254;2023-03-05T04:31:45;98832.13;;;22.40;37.70
74621;BME280;64861;47.546;19.254;2023-03-05T04:34:10;98826.78;;;22.40;37.71
74621;BME280;64861;47.546;19.254;2023-03-05T04:36:36;98827.97;;;22.37;37.72
74621;BME280;64861;47.546;19.254;2023-03-05T04:39:02;98829.63;;;22.38;37.66
74621;BME280;64861;47.546;19.254;2023-03-05T04:41:27;98825.59;;;22.42;37.46
74621;BME280;64861;47.546;19.254;2023-03-05T04:43:53;98830.72;;;22.44;37.67
74621;BME280;64861;47.546;19.254;2023-03-05T04:46:18;98826.59;;;22.41;37.16
74621;BME280;64861;47.546;19.254;2023-03-05T04:48:44;98830.28;;;22.40;37.65
74621;BME280;64861;47.546;19.254;2023-03-05T04:51:09;98825.31;;;22.37;37.24
74621;BME280;64861;47.546;19.254;2023-03-05T04:53:35;98825.59;;;22.42;37.76
74621;BME280;64861;47.546;19.254;2023-03-05T04:56:00;98827.44;;;22.42;37.23
74621;BME280;64861;47.546;19.254;2023-03-05T04:58:26;98824.31;;;22.38;37.42
74621;BME280;64861;47.546;19.254;2023-03-05T05:00:51;98806.97;;;22.27;37.56
74621;BME280;64861;47.546;19.254;2023-03-05T05:03:17;98827.81;;;22.39;37.70
74621;BME280;64861;47.546;19.254;2023-03-05T05:05:42;98832.13;;;22.40;37.60
74621;BME280;64861;47.546;19.254;2023-03-05T05:08:09;98825.16;;;22.39;37.62
74621;BME280;64861;47.546;19.254;2023-03-05T05:10:34;98824.78;;;22.42;37.84
74621;BME280;64861;47.546;19.254;2023-03-05T05:13:03;98823.94;;;22.41;37.29
74621;BME280;64861;47.546;19.254;2023-03-05T05:15:29;98821.09;;;22.43;37.58
74621;BME280;64861;47.546;19.254;2023-03-05T05:17:54;98830.72;;;22.44;37.76
74621;BME280;64861;47.546;19.254;2023-03-05T05:20:20;98830.47;;;22.39;37.79
74621;BME280;64861;47.546;19.254;2023-03-05T05:22:45;98828.81;;;22.38;37.77
74621;BME280;64861;47.546;19.254;2023-03-05T05:25:11;98840.66;;;22.35;37.89
74621;BME280;64861;47.546;19.254;2023-03-05T05:27:38;98830.91;;;22.27;38.13
74621;BME280;64861;47.546;19.254;2023-03-05T05:30:04;98841.28;;;22.37;37.69
74621;BME280;64861;47.546;19.254;2023-03-05T05:32:30;98845.59;;;22.38;37.73
74621;BME280;64861;47.546;19.254;2023-03-05T05:34:57;98847.06;;;22.41;37.88
74621;BME280;64861;47.546;19.254;2023-03-05T05:37:23;98848.75;;;22.42;37.70
74621;BME280;64861;47.546;19.254;2023-03-05T05:39:49;98847.28;;;22.39;37.73
74621;BME280;64861;47.546;19.254;2023-03-05T05:42:20;98844.78;;;22.38;37.97
74621;BME280;64861;47.546;19.254;2023-03-05T05:44:46;98844.53;;;22.33;38.08
74621;BME280;64861;47.546;19.254;2023-03-05T05:47:13;98841.66;;;22.34;38.12
74621;BME280;64861;47.546;19.254;2023-03-05T05:49:39;98844.31;;;22.34;37.97
74621;BME280;64861;47.546;19.254;2023-03-05T05:52:05;98838.75;;;22.29;37.88
74621;BME280;64861;47.546;19.254;2023-03-05T05:54:30;98845.91;;;22.28;38.08
74621;BME280;64861;47.546;19.254;2023-03-05T05:56:59;98853.13;;;22.35;37.80
74621;BME280;64861;47.546;19.254;2023-03-05T05:59:24;98851.31;;;22.35;37.98
74621;BME280;64861;47.546;19.254;2023-03-05T06:01:50;98856.44;;;22.37;38.29
74621;BME280;64861;47.546;19.254;2023-03-05T06:04:15;98861.41;;;22.40;37.90
74621;BME280;64861;47.546;19.254;2023-03-05T06:06:41;98860.75;;;22.38;37.95
74621;BME280;64861;47.546;19.254;2023-03-05T06:09:06;98857.72;;;22.41;37.81
74621;BME280;64861;47.546;19.254;2023-03-05T06:11:32;98861.56;;;22.38;38.07
74621;BME280;64861;47.546;19.254;2023-03-05T06:13:58;98859.56;;;22.40;37.97
74621;BME280;64861;47.546;19.254;2023-03-05T06:16:24;98867.53;;;22.40;37.92
74621;BME280;64861;47.546;19.254;2023-03-05T06:18:50;98872.06;;;22.40;37.89
74621;BME280;64861;47.546;19.254;2023-03-05T06:21:17;98881.69;;;22.41;37.86
74621;BME280;64861;47.546;19.254;2023-03-05T06:23:44;98879.69;;;22.43;37.82
74621;BME280;64861;47.546;19.254;2023-03-05T06:26:11;98877.53;;;22.38;37.98
74621;BME280;64861;47.546;19.254;2023-03-05T06:28:37;98875.06;;;22.37;37.89
74621;BME280;64861;47.546;19.254;2023-03-05T06:31:14;98874.06;;;22.38;38.01
74621;BME280;64861;47.546;19.254;2023-03-05T06:33:41;98876.72;;;22.38;37.84
74621;BME280;64861;47.546;19.254;2023-03-05T06:36:13;98878.19;;;22.40;37.97
74621;BME280;64861;47.546;19.254;2023-03-05T06:38:39;98879.69;;;22.43;37.67
74621;BME280;64861;47.546;19.254;2023-03-05T06:41:10;98872.06;;;22.40;37.96
74621;BME280;64861;47.546;19.254;2023-03-05T06:43:38;98868.94;;;22.36;37.81
74621;BME280;64861;47.546;19.254;2023-03-05T06:46:11;98876.72;;;22.38;37.89
74621;BME280;64861;47.546;19.254;2023-03-05T06:48:37;98873.16;;;22.45;37.52
74621;BME280;64861;47.546;19.254;2023-03-05T06:51:03;98872.88;;;22.40;37.78
74621;BME280;64861;47.546;19.254;2023-03-05T06:53:29;98878.47;;;22.45;37.81
74621;BME280;64861;47.546;19.254;2023-03-05T06:55:55;98883.16;;;22.43;37.83
74621;BME280;64861;47.546;19.254;2023-03-05T06:58:21;98873.97;;;22.46;37.79
74621;BME280;64861;47.546;19.254;2023-03-05T07:00:46;98871.50;;;22.44;37.83
74621;BME280;64861;47.546;19.254;2023-03-05T07:03:12;98874.59;;;22.48;37.65
74621;BME280;64861;47.546;19.254;2023-03-05T07:05:38;98877.47;;;22.46;37.71
74621;BME280;64861;47.546;19.254;2023-03-05T07:08:04;98880.78;;;22.48;37.80
74621;BME280;64861;47.546;19.254;2023-03-05T07:10:30;98880.94;;;22.47;37.93
74621;BME280;64861;47.546;19.254;2023-03-05T07:12:56;98880.50;;;22.43;37.84
74621;BME280;64861;47.546;19.254;2023-03-05T07:15:21;98875.47;;;22.48;37.68
74621;BME280;64861;47.546;19.254;2023-03-05T07:17:47;98880.13;;;22.46;37.68
74621;BME280;64861;47.546;19.254;2023-03-05T07:20:13;98869.47;;;22.46;37.70
74621;BME280;64861;47.546;19.254;2023-03-05T07:22:38;98878.13;;;22.48;37.92
74621;BME280;64861;47.546;19.254;2023-03-05T07:25:04;98879.69;;;22.43;37.77
74621;BME280;64861;47.546;19.254;2023-03-05T07:27:33;98872.78;;;22.48;37.88
74621;BME280;64861;47.546;19.254;2023-03-05T07:29:59;98873.97;;;22.46;37.89
74621;BME280;64861;47.546;19.254;2023-03-05T07:32:24;98868.66;;;22.46;38.09
74621;BME280;64861;47.546;19.254;2023-03-05T07:34:50;98869.94;;;22.50;38.29
74621;BME280;64861;47.546;19.254;2023-03-05T07:37:15;98870.50;;;22.45;38.52
74621;BME280;64861;47.546;19.254;2023-03-05T07:39:41;98866.44;;;22.49;38.65
74621;BME280;64861;47.546;19.254;2023-03-05T07:42:06;98865.06;;;22.54;38.73
74621;BME280;64861;47.546;19.254;2023-03-05T07:44:31;98869.72;;;22.51;38.83
74621;BME280;64861;47.546;19.254;2023-03-05T07:46:57;98875.06;;;22.51;38.82
74621;BME280;64861;47.546;19.254;2023-03-05T07:49:22;98870.22;;;22.55;38.85
74621;BME280;64861;47.546;19.254;2023-03-05T07:51:48;98869.72;;;22.51;38.88
74621;BME280;64861;47.546;19.254;2023-03-05T07:54:13;98870.03;;;22.57;38.84
74621;BME280;64861;47.546;19.254;2023-03-05T07:56:39;98866.53;;;22.56;38.93
74621;BME280;64861;47.546;19.254;2023-03-05T07:59:07;98862.03;;;22.57;38.86
74621;BME280;64861;47.546;19.254;2023-03-05T08:01:33;98857.88;;;22.69;38.98
74621;BME280;64861;47.546;19.254;2023-03-05T08:04:00;98860.91;;;22.66;39.21
74621;BME280;64861;47.546;19.254;2023-03-05T08:06:25;98864.41;;;22.66;39.31
74621;BME280;64861;47.546;19.254;2023-03-05T08:08:51;98860.84;;;22.59;39.56
74621;BME280;64861;47.546;19.254;2023-03-05T08:11:16;98857.16;;;22.60;39.66
74621;BME280;64861;47.546;19.254;2023-03-05T08:16:14;98857.44;;;22.65;39.68
74621;BME280;64861;47.546;19.254;2023-03-05T08:21:05;98868.19;;;22.57;39.95
74621;BME280;64861;47.546;19.254;2023-03-05T08:23:31;98866.25;;;22.66;39.83
74621;BME280;64861;47.546;19.254;2023-03-05T08:25:59;98864.41;;;22.66;39.94
74621;BME280;64861;47.546;19.254;2023-03-05T08:28:24;98865.44;;;22.65;40.12
74621;BME280;64861;47.546;19.254;2023-03-05T08:30:50;98861.47;;;22.61;40.14
74621;BME280;64861;47.546;19.254;2023-03-05T08:33:15;98865.88;;;22.69;40.00
74621;BME280;64861;47.546;19.254;2023-03-05T08:35:44;98861.38;;;22.69;39.96
74621;BME280;64861;47.546;19.254;2023-03-05T08:38:09;98861.53;;;22.68;40.03
74621;BME280;64861;47.546;19.254;2023-03-05T08:40:35;98856.88;;;22.70;39.87
74621;BME280;64861;47.546;19.254;2023-03-05T08:43:00;98864.69;;;22.71;39.87
74621;BME280;64861;47.546;19.254;2023-03-05T08:45:26;98861.38;;;22.69;39.50
74621;BME280;64861;47.546;19.254;2023-03-05T08:47:53;98861.53;;;22.68;40.04
74621;BME280;64861;47.546;19.254;2023-03-05T08:50:20;98862.75;;;22.65;39.67
74621;BME280;64861;47.546;19.254;2023-03-05T08:52:47;98860.34;;;22.70;39.54
74621;BME280;64861;47.546;19.254;2023-03-05T08:55:12;98867.44;;;22.78;39.57
74621;BME280;64861;47.546;19.254;2023-03-05T08:57:38;98858.78;;;22.76;39.90
74621;BME280;64861;47.546;19.254;2023-03-05T09:00:03;98862.09;;;22.78;40.00
74621;BME280;64861;47.546;19.254;2023-03-05T09:02:29;98863.75;;;22.79;39.79
74621;BME280;64861;47.546;19.254;2023-03-05T09:04:55;98856.94;;;22.77;40.10
74621;BME280;64861;47.546;19.254;2023-03-05T09:07:21;98859.16;;;22.73;40.28
74621;BME280;64861;47.546;19.254;2023-03-05T09:09:46;98855.69;;;22.72;40.08
74621;BME280;64861;47.546;19.254;2023-03-05T09:12:11;98859.44;;;22.78;40.03
74621;BME280;64861;47.546;19.254;2023-03-05T09:14:38;98857.59;;;22.79;40.16
74621;BME280;64861;47.546;19.254;2023-03-05T09:17:04;98856.88;;;22.70;40.19
74621;BME280;64861;47.546;19.254;2023-03-05T09:19:29;98859.38;;;22.57;39.93
74621;BME280;64861;47.546;19.254;2023-03-05T09:21:55;98848.41;;;22.66;39.80
74621;BME280;64861;47.546;19.254;2023-03-05T09:24:20;98852.19;;;22.72;39.95
74621;BME280;64861;47.546;19.254;2023-03-05T09:26:45;98839.16;;;22.62;40.42
74621;BME280;64861;47.546;19.254;2023-03-05T09:29:11;98850.63;;;22.63;40.45
74621;BME280;64861;47.546;19.254;2023-03-05T09:31:36;98845.69;;;22.60;40.31
74621;BME280;64861;47.546;19.254;2023-03-05T09:34:03;98846.03;;;22.71;40.29
74621;BME280;64861;47.546;19.254;2023-03-05T09:36:30;98843.38;;;22.71;40.09
74621;BME280;64861;47.546;19.254;2023-03-05T09:38:56;98838.75;;;22.80;40.04
74621;BME280;64861;47.546;19.254;2023-03-05T09:44:04;98844.28;;;22.79;40.46
74621;BME280;64861;47.546;19.254;2023-03-05T09:46:51;98844.66;;;22.75;40.36
74621;BME280;64861;47.546;19.254;2023-03-05T09:49:54;98843.19;;;22.73;40.29
74621;BME280;64861;47.546;19.254;2023-03-05T09:54:56;98832.22;;;22.83;40.21
74621;BME280;64861;47.546;19.254;2023-03-05T09:57:34;98837.53;;;22.97;40.22
74621;BME280;64861;47.546;19.254;2023-03-05T10:00:04;98832.91;;;21.96;31.53
74621;BME280;64861;47.546;19.254;2023-03-05T10:02:36;98839.09;;;21.35;31.47
74621;BME280;64861;47.546;19.254;2023-03-05T10:05:19;98831.16;;;21.88;36.37
74621;BME280;64861;47.546;19.254;2023-03-05T10:07:59;98834.69;;;22.33;36.08
74621;BME280;64861;47.546;19.254;2023-03-05T10:10:50;98839.91;;;22.41;37.22
74621;BME280;64861;47.546;19.254;2023-03-05T10:13:29;98828.81;;;22.52;37.79
74621;BME280;64861;47.546;19.254;2023-03-05T10:18:36;98821.34;;;22.63;38.35
74621;BME280;64861;47.546;19.254;2023-03-05T10:21:10;98825.91;;;22.69;38.35
74621;BME280;64861;47.546;19.254;2023-03-05T10:26:51;98815.28;;;22.69;38.79
74621;BME280;64861;47.546;19.254;2023-03-05T10:42:55;98804.63;;;22.69;39.13
74621;BME280;64861;47.546;19.254;2023-03-05T10:48:21;98802.78;;;22.69;38.95
74621;BME280;64861;47.546;19.254;2023-03-05T10:50:54;98797.44;;;22.69;39.27
74621;BME280;64861;47.546;19.254;2023-03-05T10:53:37;98793.59;;;22.72;39.18
74621;BME280;64861;47.546;19.254;2023-03-05T10:56:09;98799.53;;;22.74;39.15
74621;BME280;64861;47.546;19.254;2023-03-05T10:58:36;98787.88;;;22.75;39.07
74621;BME280;64861;47.546;19.254;2023-03-05T11:01:24;98783.31;;;22.69;39.23
74621;BME280;64861;47.546;19.254;2023-03-05T11:06:34;98779.50;;;22.78;39.07
74621;BME280;64861;47.546;19.254;2023-03-05T11:09:28;98775.06;;;22.85;38.89
74621;BME280;64861;47.546;19.254;2023-03-05T11:14:29;98776.91;;;22.85;38.73
74621;BME280;64861;47.546;19.254;2023-03-05T11:16:58;98772.66;;;22.90;38.97
74621;BME280;64861;47.546;19.254;2023-03-05T11:22:21;98772.22;;;22.87;38.99
74621;BME280;64861;47.546;19.254;2023-03-05T11:27:36;98762.13;;;22.82;38.95
74621;BME280;64861;47.546;19.254;2023-03-05T11:30:03;98759.63;;;22.81;39.06
74621;BME280;64861;47.546;19.254;2023-03-05T11:32:29;98753.25;;;22.75;38.92
74621;BME280;64861;47.546;19.254;2023-03-05T11:34:56;98753.25;;;22.75;39.23
74621;BME280;64861;47.546;19.254;2023-03-05T11:37:28;98753.31;;;22.82;39.09
74621;BME280;64861;47.546;19.254;2023-03-05T11:40:21;98749.81;;;22.81;39.19
74621;BME280;64861;47.546;19.254;2023-03-05T11:42:55;98744.09;;;22.84;39.05
74621;BME280;64861;47.546;19.254;2023-03-05T11:45:22;98739.41;;;22.86;39.11
74621;BME280;64861;47.546;19.254;2023-03-05T11:47:51;98738.78;;;22.84;39.07
74621;BME280;64861;47.546;19.254;2023-03-05T11:50:31;98737.72;;;22.79;39.12
74621;BME280;64861;47.546;19.254;2023-03-05T11:53:04;98735.88;;;22.79;39.38
74621;BME280;64861;47.546;19.254;2023-03-05T11:55:39;98735.59;;;22.74;39.24
74621;BME280;64861;47.546;19.254;2023-03-05T11:58:25;98728.84;;;22.71;39.40
74621;BME280;64861;47.546;19.254;2023-03-05T12:00:52;98728.84;;;22.71;39.31
74621;BME280;64861;47.546;19.254;2023-03-05T12:03:21;98727.44;;;22.75;39.30
74621;BME280;64861;47.546;19.254;2023-03-05T12:08:54;98715.25;;;22.66;38.60
74621;BME280;64861;47.546;19.254;2023-03-05T12:11:31;98706.31;;;21.87;34.40
74621;BME280;64861;47.546;19.254;2023-03-05T12:14:04;98707.22;;;22.23;36.54
74621;BME280;64861;47.546;19.254;2023-03-05T12:20:11;98706.47;;;22.51;37.07
74621;BME280;64861;47.546;19.254;2023-03-05T12:22:42;98705.72;;;22.57;37.29
74621;BME280;64861;47.546;19.254;2023-03-05T12:25:31;98706.78;;;22.41;35.92
74621;BME280;64861;47.546;19.254;2023-03-05T12:27:57;98692.59;;;22.34;36.14
74621;BME280;64861;47.546;19.254;2023-03-05T12:38:50;98686.72;;;22.39;34.82
74621;BME280;64861;47.546;19.254;2023-03-05T12:46:41;98671.03;;;22.50;34.79
74621;BME280;64861;47.546;19.254;2023-03-05T12:51:42;98665.47;;;22.67;35.42
74621;BME280;64861;47.546;19.254;2023-03-05T12:54:34;98670.25;;;22.71;35.71
74621;BME280;64861;47.546;19.254;2023-03-05T12:57:21;98663.06;;;22.72;35.90
74621;BME280;64861;47.546;19.254;2023-03-05T12:59:58;98659.63;;;22.78;35.96
74621;BME280;64861;47.546;19.254;2023-03-05T13:02:29;98652.91;;;22.82;36.06
74621;BME280;64861;47.546;19.254;2023-03-05T13:04:59;98652.13;;;22.88;36.11
74621;BME280;64861;47.546;19.254;2023-03-05T13:07:25;98646.44;;;22.91;36.21
74621;BME280;64861;47.546;19.254;2023-03-05T13:09:55;98642.19;;;22.97;35.84
74621;BME280;64861;47.546;19.254;2023-03-05T13:12:23;98649.72;;;22.93;36.15
74621;BME280;64861;47.546;19.254;2023-03-05T13:15:00;98644.16;;;22.88;36.14
74621;BME280;64861;47.546;19.254;2023-03-05T13:19:57;98641.00;;;22.78;36.76
74621;BME280;64861;47.546;19.254;2023-03-05T13:22:23;98640.34;;;22.76;36.90
74621;BME280;64861;47.546;19.254;2023-03-05T13:25:13;98638.88;;;22.73;37.01
74621;BME280;64861;47.546;19.254;2023-03-05T13:27:38;98643.78;;;22.70;37.33
74621;BME280;64861;47.546;19.254;2023-03-05T13:30:04;98648.28;;;22.69;37.20
74621;BME280;64861;47.546;19.254;2023-03-05T13:32:31;98644.81;;;22.69;37.27
74621;BME280;64861;47.546;19.254;2023-03-05T13:34:59;98645.34;;;22.64;37.55
74621;BME280;64861;47.546;19.254;2023-03-05T13:37:28;98644.38;;;22.65;37.53
74621;BME280;64861;47.546;19.254;2023-03-05T13:39:59;98654.97;;;22.59;37.51
74621;BME280;64861;47.546;19.254;2023-03-05T13:42:30;98658.22;;;22.61;37.59
74621;BME280;64861;47.546;19.254;2023-03-05T13:45:03;98659.63;;;22.57;37.88
74621;BME280;64861;47.546;19.254;2023-03-05T13:47:31;98646.75;;;22.60;38.12
74621;BME280;64861;47.546;19.254;2023-03-05T13:49:59;98651.25;;;22.60;38.13
74621;BME280;64861;47.546;19.254;2023-03-05T13:52:31;98645.34;;;22.64;38.05
74621;BME280;64861;47.546;19.254;2023-03-05T13:54:58;98653.13;;;22.59;38.02
74621;BME280;64861;47.546;19.254;2023-03-05T13:57:51;98648.16;;;22.56;38.26
74621;BME280;64861;47.546;19.254;2023-03-05T14:00:24;98656.59;;;22.60;38.30
74621;BME280;64861;47.546;19.254;2023-03-05T14:02:50;98644.69;;;22.56;38.36
74621;BME280;64861;47.546;19.254;2023-03-05T14:05:16;98647.34;;;22.56;38.41
74621;BME280;64861;47.546;19.254;2023-03-05T14:07:42;98648.78;;;22.58;38.40